sensor_id;sensor_type;location;lat;lon;timestamp;P1;durP1;ratioP1;P2;durP2;ratioP2
70406;SDS011;57821;52.202;0.154;2023-05-13T00:01:59;17.10;;;5.50;;
70406;SDS011;57821;52.202;0.154;2023-05-13T00:04:26;18.95;;;5.80;;
70406;SDS011;57821;52.202;0.154;2023-05-13T00:06:52;20.58;;;6.50;;
70406;SDS011;57821;52.202;0.154;2023-05-13T00:09:19;18.88;;;6.88;;
70406;SDS011;57821;52.202;0.154;2023-05-13T00:11:45;25.13;;;6.90;;
70406;SDS011;57821;52.202;0.154;2023-05-13T00:14:12;20.67;;;7.00;;
70406;SDS011;57821;52.202;0.154;2023-05-13T00:16:38;19.98;;;6.50;;
70406;SDS011;57821;52.202;0.154;2023-05-13T00:19:05;19.40;;;6.95;;
70406;SDS011;57821;52.202;0.154;2023-05-13T00:21:31;21.52;;;7.28;;
70406;SDS011;57821;52.202;0.154;2023-05-13T00:23:58;15.60;;;6.32;;
70406;SDS011;57821;52.202;0.154;2023-05-13T00:26:24;19.83;;;7.22;;
70406;SDS011;57821;52.202;0.154;2023-05-13T00:28:51;25.95;;;7.78;;
70406;SDS011;57821;52.202;0.154;2023-05-13T00:31:17;20.00;;;8.15;;
70406;SDS011;57821;52.202;0.154;2023-05-13T00:33:44;21.70;;;7.88;;
70406;SDS011;57821;52.202;0.154;2023-05-13T00:36:11;18.70;;;7.30;;
70406;SDS011;57821;52.202;0.154;2023-05-13T00:38:37;20.60;;;6.63;;
70406;SDS011;57821;52.202;0.154;2023-05-13T00:41:04;14.70;;;5.95;;
70406;SDS011;57821;52.202;0.154;2023-05-13T00:43:31;18.55;;;6.93;;
70406;SDS011;57821;52.202;0.154;2023-05-13T00:45:57;18.83;;;5.93;;
70406;SDS011;57821;52.202;0.154;2023-05-13T00:48:25;18.98;;;6.53;;
70406;SDS011;57821;52.202;0.154;2023-05-13T00:50:52;16.67;;;6.28;;
70406;SDS011;57821;52.202;0.154;2023-05-13T00:53:18;23.15;;;5.68;;
70406;SDS011;57821;52.202;0.154;2023-05-13T00:55:45;20.48;;;6.10;;
70406;SDS011;57821;52.202;0.154;2023-05-13T00:58:12;24.75;;;6.30;;
70406;SDS011;57821;52.202;0.154;2023-05-13T01:03:45;17.52;;;6.35;;
70406;SDS011;57821;52.202;0.154;2023-05-13T01:06:43;21.45;;;6.43;;
70406;SDS011;57821;52.202;0.154;2023-05-13T01:09:32;21.65;;;6.07;;
70406;SDS011;57821;52.202;0.154;2023-05-13T01:12:07;22.48;;;7.10;;
70406;SDS011;57821;52.202;0.154;2023-05-13T01:14:40;22.00;;;6.15;;
70406;SDS011;57821;52.202;0.154;2023-05-13T01:17:17;27.83;;;6.82;;
70406;SDS011;57821;52.202;0.154;2023-05-13T01:19:56;16.08;;;6.10;;
70406;SDS011;57821;52.202;0.154;2023-05-13T01:22:25;24.33;;;6.05;;
70406;SDS011;57821;52.202;0.154;2023-05-13T01:24:52;23.45;;;7.40;;
70406;SDS011;57821;52.202;0.154;2023-05-13T01:27:18;18.88;;;6.57;;
70406;SDS011;57821;52.202;0.154;2023-05-13T01:29:46;20.60;;;6.82;;
70406;SDS011;57821;52.202;0.154;2023-05-13T01:32:17;15.05;;;6.60;;
70406;SDS011;57821;52.202;0.154;2023-05-13T01:35:08;26.13;;;7.10;;
70406;SDS011;57821;52.202;0.154;2023-05-13T01:40:07;16.70;;;6.28;;
70406;SDS011;57821;52.202;0.154;2023-05-13T01:42:50;19.75;;;6.80;;
70406;SDS011;57821;52.202;0.154;2023-05-13T01:45:17;19.17;;;6.18;;
70406;SDS011;57821;52.202;0.154;2023-05-13T01:47:43;16.42;;;6.35;;
70406;SDS011;57821;52.202;0.154;2023-05-13T01:50:10;18.83;;;7.93;;
70406;SDS011;57821;52.202;0.154;2023-05-13T01:52:39;16.33;;;6.25;;
70406;SDS011;57821;52.202;0.154;2023-05-13T01:55:06;16.95;;;6.30;;
70406;SDS011;57821;52.202;0.154;2023-05-13T01:57:33;15.73;;;6.40;;
70406;SDS011;57821;52.202;0.154;2023-05-13T02:00:01;16.92;;;6.20;;
70406;SDS011;57821;52.202;0.154;2023-05-13T02:02:27;13.23;;;5.80;;
70406;SDS011;57821;52.202;0.154;2023-05-13T02:04:54;15.00;;;5.90;;
70406;SDS011;57821;52.202;0.154;2023-05-13T02:07:21;18.77;;;6.10;;
70406;SDS011;57821;52.202;0.154;2023-05-13T02:09:49;18.60;;;6.70;;
70406;SDS011;57821;52.202;0.154;2023-05-13T02:12:15;15.65;;;6.40;;
70406;SDS011;57821;52.202;0.154;2023-05-13T02:14:42;17.42;;;6.72;;
70406;SDS011;57821;52.202;0.154;2023-05-13T02:17:08;13.30;;;5.95;;
70406;SDS011;57821;52.202;0.154;2023-05-13T02:19:35;16.27;;;6.10;;
70406;SDS011;57821;52.202;0.154;2023-05-13T02:22:01;17.08;;;6.85;;
70406;SDS011;57821;52.202;0.154;2023-05-13T02:24:29;18.58;;;6.00;;
70406;SDS011;57821;52.202;0.154;2023-05-13T02:26:57;17.50;;;5.90;;
70406;SDS011;57821;52.202;0.154;2023-05-13T02:29:23;17.67;;;5.78;;
70406;SDS011;57821;52.202;0.154;2023-05-13T02:31:51;15.90;;;6.25;;
70406;SDS011;57821;52.202;0.154;2023-05-13T02:34:17;18.45;;;6.63;;
70406;SDS011;57821;52.202;0.154;2023-05-13T02:36:44;16.25;;;5.97;;
70406;SDS011;57821;52.202;0.154;2023-05-13T02:39:10;16.23;;;6.45;;
70406;SDS011;57821;52.202;0.154;2023-05-13T02:41:37;19.52;;;6.03;;
70406;SDS011;57821;52.202;0.154;2023-05-13T02:44:03;17.17;;;6.28;;
70406;SDS011;57821;52.202;0.154;2023-05-13T02:46:30;15.57;;;6.63;;
70406;SDS011;57821;52.202;0.154;2023-05-13T02:48:57;16.52;;;5.75;;
70406;SDS011;57821;52.202;0.154;2023-05-13T02:51:23;17.13;;;5.75;;
70406;SDS011;57821;52.202;0.154;2023-05-13T02:53:50;21.60;;;6.82;;
70406;SDS011;57821;52.202;0.154;2023-05-13T02:56:17;19.38;;;6.05;;
70406;SDS011;57821;52.202;0.154;2023-05-13T02:58:43;19.45;;;6.13;;
70406;SDS011;57821;52.202;0.154;2023-05-13T03:01:10;11.88;;;5.53;;
70406;SDS011;57821;52.202;0.154;2023-05-13T03:03:36;19.05;;;5.78;;
70406;SDS011;57821;52.202;0.154;2023-05-13T03:06:03;21.95;;;5.68;;
70406;SDS011;57821;52.202;0.154;2023-05-13T03:08:30;18.52;;;5.97;;
70406;SDS011;57821;52.202;0.154;2023-05-13T03:10:58;18.95;;;6.15;;
70406;SDS011;57821;52.202;0.154;2023-05-13T03:13:24;18.08;;;6.15;;
70406;SDS011;57821;52.202;0.154;2023-05-13T03:15:51;14.80;;;6.13;;
70406;SDS011;57821;52.202;0.154;2023-05-13T03:18:17;17.77;;;5.40;;
70406;SDS011;57821;52.202;0.154;2023-05-13T03:20:44;15.50;;;5.40;;
70406;SDS011;57821;52.202;0.154;2023-05-13T03:23:10;22.95;;;6.68;;
70406;SDS011;57821;52.202;0.154;2023-05-13T03:25:37;18.05;;;5.88;;
70406;SDS011;57821;52.202;0.154;2023-05-13T03:28:04;16.80;;;5.18;;
70406;SDS011;57821;52.202;0.154;2023-05-13T03:30:35;17.75;;;5.50;;
70406;SDS011;57821;52.202;0.154;2023-05-13T03:33:09;16.52;;;4.75;;
70406;SDS011;57821;52.202;0.154;2023-05-13T03:35:35;15.20;;;5.15;;
70406;SDS011;57821;52.202;0.154;2023-05-13T03:38:02;13.63;;;5.00;;
70406;SDS011;57821;52.202;0.154;2023-05-13T03:40:30;15.40;;;5.20;;
70406;SDS011;57821;52.202;0.154;2023-05-13T03:42:57;19.92;;;6.22;;
70406;SDS011;57821;52.202;0.154;2023-05-13T03:45:23;12.32;;;4.90;;
70406;SDS011;57821;52.202;0.154;2023-05-13T03:47:53;14.90;;;4.60;;
70406;SDS011;57821;52.202;0.154;2023-05-13T03:50:22;14.98;;;4.72;;
70406;SDS011;57821;52.202;0.154;2023-05-13T03:52:50;13.57;;;5.00;;
70406;SDS011;57821;52.202;0.154;2023-05-13T03:55:18;15.73;;;5.43;;
70406;SDS011;57821;52.202;0.154;2023-05-13T03:57:46;15.45;;;5.32;;
70406;SDS011;57821;52.202;0.154;2023-05-13T04:00:16;15.05;;;5.53;;
70406;SDS011;57821;52.202;0.154;2023-05-13T04:02:42;12.60;;;5.25;;
70406;SDS011;57821;52.202;0.154;2023-05-13T04:05:11;14.18;;;5.55;;
70406;SDS011;57821;52.202;0.154;2023-05-13T04:07:37;20.98;;;5.80;;
70406;SDS011;57821;52.202;0.154;2023-05-13T04:10:04;17.75;;;5.35;;
70406;SDS011;57821;52.202;0.154;2023-05-13T04:12:31;15.07;;;4.78;;
70406;SDS011;57821;52.202;0.154;2023-05-13T04:14:59;14.57;;;4.97;;
70406;SDS011;57821;52.202;0.154;2023-05-13T04:17:26;14.07;;;5.95;;
70406;SDS011;57821;52.202;0.154;2023-05-13T04:19:53;13.27;;;5.47;;
70406;SDS011;57821;52.202;0.154;2023-05-13T04:22:20;13.93;;;5.50;;
70406;SDS011;57821;52.202;0.154;2023-05-13T04:24:47;11.15;;;4.88;;
70406;SDS011;57821;52.202;0.154;2023-05-13T04:27:14;11.93;;;5.07;;
70406;SDS011;57821;52.202;0.154;2023-05-13T04:29:40;16.58;;;5.32;;
70406;SDS011;57821;52.202;0.154;2023-05-13T04:32:07;17.15;;;6.05;;
70406;SDS011;57821;52.202;0.154;2023-05-13T04:34:35;16.98;;;5.15;;
70406;SDS011;57821;52.202;0.154;2023-05-13T04:37:02;14.05;;;5.07;;
70406;SDS011;57821;52.202;0.154;2023-05-13T04:39:28;14.25;;;5.28;;
70406;SDS011;57821;52.202;0.154;2023-05-13T04:41:55;11.52;;;4.82;;
70406;SDS011;57821;52.202;0.154;2023-05-13T04:44:21;13.52;;;5.32;;
70406;SDS011;57821;52.202;0.154;2023-05-13T04:46:48;16.50;;;5.30;;
70406;SDS011;57821;52.202;0.154;2023-05-13T04:49:15;13.98;;;5.63;;
70406;SDS011;57821;52.202;0.154;2023-05-13T04:51:42;15.98;;;5.60;;
70406;SDS011;57821;52.202;0.154;2023-05-13T04:54:11;18.05;;;5.80;;
70406;SDS011;57821;52.202;0.154;2023-05-13T04:56:37;13.48;;;6.35;;
70406;SDS011;57821;52.202;0.154;2023-05-13T04:59:04;15.02;;;5.50;;
70406;SDS011;57821;52.202;0.154;2023-05-13T05:01:30;12.88;;;6.15;;
70406;SDS011;57821;52.202;0.154;2023-05-13T05:03:57;15.05;;;7.00;;
70406;SDS011;57821;52.202;0.154;2023-05-13T05:06:24;14.75;;;5.80;;
70406;SDS011;57821;52.202;0.154;2023-05-13T05:08:50;16.88;;;7.60;;
70406;SDS011;57821;52.202;0.154;2023-05-13T05:11:17;14.82;;;6.93;;
70406;SDS011;57821;52.202;0.154;2023-05-13T05:13:44;17.73;;;5.80;;
70406;SDS011;57821;52.202;0.154;2023-05-13T05:16:10;14.50;;;5.70;;
70406;SDS011;57821;52.202;0.154;2023-05-13T05:18:56;20.20;;;5.90;;
70406;SDS011;57821;52.202;0.154;2023-05-13T05:21:43;14.63;;;6.15;;
70406;SDS011;57821;52.202;0.154;2023-05-13T05:24:32;17.10;;;6.43;;
70406;SDS011;57821;52.202;0.154;2023-05-13T05:27:19;15.00;;;6.07;;
70406;SDS011;57821;52.202;0.154;2023-05-13T05:30:07;14.15;;;6.05;;
70406;SDS011;57821;52.202;0.154;2023-05-13T05:32:57;14.95;;;5.97;;
70406;SDS011;57821;52.202;0.154;2023-05-13T05:35:44;16.95;;;6.38;;
70406;SDS011;57821;52.202;0.154;2023-05-13T05:38:33;14.63;;;6.45;;
70406;SDS011;57821;52.202;0.154;2023-05-13T05:41:21;15.18;;;6.50;;
70406;SDS011;57821;52.202;0.154;2023-05-13T05:44:08;14.70;;;6.03;;
70406;SDS011;57821;52.202;0.154;2023-05-13T05:46:55;13.57;;;5.65;;
70406;SDS011;57821;52.202;0.154;2023-05-13T05:49:42;17.08;;;6.15;;
70406;SDS011;57821;52.202;0.154;2023-05-13T05:52:29;15.05;;;5.93;;
70406;SDS011;57821;52.202;0.154;2023-05-13T05:55:16;17.88;;;6.78;;
70406;SDS011;57821;52.202;0.154;2023-05-13T05:58:03;16.25;;;6.00;;
70406;SDS011;57821;52.202;0.154;2023-05-13T06:00:52;15.52;;;5.80;;
70406;SDS011;57821;52.202;0.154;2023-05-13T06:03:38;14.85;;;5.82;;
70406;SDS011;57821;52.202;0.154;2023-05-13T06:06:26;11.45;;;6.03;;
70406;SDS011;57821;52.202;0.154;2023-05-13T06:09:12;14.07;;;6.00;;
70406;SDS011;57821;52.202;0.154;2023-05-13T06:11:59;13.02;;;5.90;;
70406;SDS011;57821;52.202;0.154;2023-05-13T06:14:46;18.13;;;5.93;;
70406;SDS011;57821;52.202;0.154;2023-05-13T06:17:34;14.00;;;6.55;;
70406;SDS011;57821;52.202;0.154;2023-05-13T06:20:26;15.88;;;6.35;;
70406;SDS011;57821;52.202;0.154;2023-05-13T06:23:12;15.35;;;5.93;;
70406;SDS011;57821;52.202;0.154;2023-05-13T06:25:59;20.17;;;8.05;;
70406;SDS011;57821;52.202;0.154;2023-05-13T06:28:46;14.88;;;6.15;;
70406;SDS011;57821;52.202;0.154;2023-05-13T06:31:33;18.15;;;6.07;;
70406;SDS011;57821;52.202;0.154;2023-05-13T06:34:21;18.52;;;7.05;;
70406;SDS011;57821;52.202;0.154;2023-05-13T06:37:07;14.77;;;7.88;;
70406;SDS011;57821;52.202;0.154;2023-05-13T06:39:54;17.42;;;6.80;;
70406;SDS011;57821;52.202;0.154;2023-05-13T06:42:42;18.02;;;7.35;;
70406;SDS011;57821;52.202;0.154;2023-05-13T06:45:41;15.63;;;6.88;;
70406;SDS011;57821;52.202;0.154;2023-05-13T06:48:28;18.33;;;7.15;;
70406;SDS011;57821;52.202;0.154;2023-05-13T06:51:15;18.27;;;7.65;;
70406;SDS011;57821;52.202;0.154;2023-05-13T06:54:02;15.85;;;7.03;;
70406;SDS011;57821;52.202;0.154;2023-05-13T06:56:49;18.25;;;7.25;;
70406;SDS011;57821;52.202;0.154;2023-05-13T06:59:36;16.85;;;7.32;;
70406;SDS011;57821;52.202;0.154;2023-05-13T07:02:23;21.75;;;9.27;;
70406;SDS011;57821;52.202;0.154;2023-05-13T07:05:10;18.90;;;6.93;;
70406;SDS011;57821;52.202;0.154;2023-05-13T07:07:57;11.65;;;6.65;;
70406;SDS011;57821;52.202;0.154;2023-05-13T07:10:44;17.48;;;6.90;;
70406;SDS011;57821;52.202;0.154;2023-05-13T07:13:31;13.48;;;6.15;;
70406;SDS011;57821;52.202;0.154;2023-05-13T07:16:18;13.18;;;6.68;;
70406;SDS011;57821;52.202;0.154;2023-05-13T07:19:05;13.52;;;6.47;;
70406;SDS011;57821;52.202;0.154;2023-05-13T07:21:52;15.90;;;7.03;;
70406;SDS011;57821;52.202;0.154;2023-05-13T07:24:39;18.75;;;6.80;;
70406;SDS011;57821;52.202;0.154;2023-05-13T07:27:25;13.90;;;5.88;;
70406;SDS011;57821;52.202;0.154;2023-05-13T07:30:12;16.90;;;6.40;;
70406;SDS011;57821;52.202;0.154;2023-05-13T07:32:59;16.15;;;6.78;;
70406;SDS011;57821;52.202;0.154;2023-05-13T07:35:46;13.75;;;6.63;;
70406;SDS011;57821;52.202;0.154;2023-05-13T07:38:34;16.10;;;6.68;;
70406;SDS011;57821;52.202;0.154;2023-05-13T07:41:21;16.50;;;6.47;;
70406;SDS011;57821;52.202;0.154;2023-05-13T07:44:07;14.35;;;6.68;;
70406;SDS011;57821;52.202;0.154;2023-05-13T07:46:54;12.75;;;6.82;;
70406;SDS011;57821;52.202;0.154;2023-05-13T07:49:41;16.60;;;6.65;;
70406;SDS011;57821;52.202;0.154;2023-05-13T07:52:28;16.13;;;7.38;;
70406;SDS011;57821;52.202;0.154;2023-05-13T07:55:15;15.45;;;6.88;;
70406;SDS011;57821;52.202;0.154;2023-05-13T07:58:02;17.60;;;7.22;;
70406;SDS011;57821;52.202;0.154;2023-05-13T08:00:48;14.63;;;7.43;;
70406;SDS011;57821;52.202;0.154;2023-05-13T08:03:35;15.07;;;6.55;;
70406;SDS011;57821;52.202;0.154;2023-05-13T08:06:22;12.45;;;6.43;;
70406;SDS011;57821;52.202;0.154;2023-05-13T08:09:09;17.10;;;8.07;;
70406;SDS011;57821;52.202;0.154;2023-05-13T08:11:56;22.33;;;8.23;;
70406;SDS011;57821;52.202;0.154;2023-05-13T08:14:43;14.40;;;6.88;;
70406;SDS011;57821;52.202;0.154;2023-05-13T08:17:30;16.25;;;7.30;;
70406;SDS011;57821;52.202;0.154;2023-05-13T08:20:17;19.58;;;7.13;;
70406;SDS011;57821;52.202;0.154;2023-05-13T08:23:04;19.77;;;7.82;;
70406;SDS011;57821;52.202;0.154;2023-05-13T08:25:51;16.05;;;7.25;;
70406;SDS011;57821;52.202;0.154;2023-05-13T08:28:38;14.30;;;7.60;;
70406;SDS011;57821;52.202;0.154;2023-05-13T08:31:25;19.52;;;8.15;;
70406;SDS011;57821;52.202;0.154;2023-05-13T08:34:12;18.30;;;8.68;;
70406;SDS011;57821;52.202;0.154;2023-05-13T08:36:59;18.88;;;7.88;;
70406;SDS011;57821;52.202;0.154;2023-05-13T08:39:45;24.83;;;9.07;;
70406;SDS011;57821;52.202;0.154;2023-05-13T08:42:32;24.75;;;8.70;;
70406;SDS011;57821;52.202;0.154;2023-05-13T08:45:23;20.50;;;8.82;;
70406;SDS011;57821;52.202;0.154;2023-05-13T08:48:14;19.17;;;9.57;;
70406;SDS011;57821;52.202;0.154;2023-05-13T08:51:04;17.52;;;8.15;;
70406;SDS011;57821;52.202;0.154;2023-05-13T08:53:51;17.65;;;8.93;;
70406;SDS011;57821;52.202;0.154;2023-05-13T08:56:40;15.73;;;8.23;;
70406;SDS011;57821;52.202;0.154;2023-05-13T08:59:27;20.13;;;8.07;;
70406;SDS011;57821;52.202;0.154;2023-05-13T09:02:14;19.65;;;8.27;;
70406;SDS011;57821;52.202;0.154;2023-05-13T09:05:01;16.85;;;7.35;;
70406;SDS011;57821;52.202;0.154;2023-05-13T09:07:52;12.63;;;6.80;;
70406;SDS011;57821;52.202;0.154;2023-05-13T09:10:39;15.85;;;7.20;;
70406;SDS011;57821;52.202;0.154;2023-05-13T09:13:26;15.43;;;6.85;;
70406;SDS011;57821;52.202;0.154;2023-05-13T09:16:13;17.25;;;7.60;;
70406;SDS011;57821;52.202;0.154;2023-05-13T09:19:03;14.23;;;6.60;;
70406;SDS011;57821;52.202;0.154;2023-05-13T09:21:52;19.40;;;7.15;;
70406;SDS011;57821;52.202;0.154;2023-05-13T09:24:39;17.92;;;7.05;;
70406;SDS011;57821;52.202;0.154;2023-05-13T09:27:40;15.55;;;6.72;;
70406;SDS011;57821;52.202;0.154;2023-05-13T09:30:35;17.10;;;6.95;;
70406;SDS011;57821;52.202;0.154;2023-05-13T09:33:28;14.27;;;6.25;;
70406;SDS011;57821;52.202;0.154;2023-05-13T09:36:15;13.18;;;6.85;;
70406;SDS011;57821;52.202;0.154;2023-05-13T09:39:02;14.65;;;6.40;;
70406;SDS011;57821;52.202;0.154;2023-05-13T09:41:49;22.17;;;7.53;;
70406;SDS011;57821;52.202;0.154;2023-05-13T09:44:36;13.27;;;6.72;;
70406;SDS011;57821;52.202;0.154;2023-05-13T09:47:23;15.80;;;6.53;;
70406;SDS011;57821;52.202;0.154;2023-05-13T09:50:10;11.32;;;6.13;;
70406;SDS011;57821;52.202;0.154;2023-05-13T09:52:57;14.45;;;6.63;;
70406;SDS011;57821;52.202;0.154;2023-05-13T09:55:56;16.45;;;6.55;;
70406;SDS011;57821;52.202;0.154;2023-05-13T09:58:49;16.38;;;6.95;;
70406;SDS011;57821;52.202;0.154;2023-05-13T10:01:37;12.73;;;6.57;;
70406;SDS011;57821;52.202;0.154;2023-05-13T10:04:25;15.05;;;6.68;;
70406;SDS011;57821;52.202;0.154;2023-05-13T10:07:13;13.82;;;6.70;;
70406;SDS011;57821;52.202;0.154;2023-05-13T10:10:00;19.13;;;7.00;;
70406;SDS011;57821;52.202;0.154;2023-05-13T10:12:49;13.38;;;6.75;;
70406;SDS011;57821;52.202;0.154;2023-05-13T10:15:40;13.98;;;7.63;;
70406;SDS011;57821;52.202;0.154;2023-05-13T10:18:34;15.45;;;7.13;;
70406;SDS011;57821;52.202;0.154;2023-05-13T10:21:20;15.65;;;6.55;;
70406;SDS011;57821;52.202;0.154;2023-05-13T10:24:08;16.77;;;7.30;;
70406;SDS011;57821;52.202;0.154;2023-05-13T10:26:55;17.88;;;7.20;;
70406;SDS011;57821;52.202;0.154;2023-05-13T10:29:43;14.63;;;6.72;;
70406;SDS011;57821;52.202;0.154;2023-05-13T10:32:30;13.18;;;6.45;;
70406;SDS011;57821;52.202;0.154;2023-05-13T10:35:17;15.63;;;6.95;;
70406;SDS011;57821;52.202;0.154;2023-05-13T10:41:37;13.85;;;6.80;;
70406;SDS011;57821;52.202;0.154;2023-05-13T10:44:53;12.88;;;5.85;;
70406;SDS011;57821;52.202;0.154;2023-05-13T10:47:40;12.82;;;6.05;;
70406;SDS011;57821;52.202;0.154;2023-05-13T10:50:27;14.32;;;6.35;;
70406;SDS011;57821;52.202;0.154;2023-05-13T10:53:24;16.02;;;7.13;;
70406;SDS011;57821;52.202;0.154;2023-05-13T10:56:13;15.38;;;7.28;;
70406;SDS011;57821;52.202;0.154;2023-05-13T10:59:04;21.70;;;7.45;;
70406;SDS011;57821;52.202;0.154;2023-05-13T11:01:51;18.58;;;7.78;;
70406;SDS011;57821;52.202;0.154;2023-05-13T11:04:56;19.25;;;7.50;;
70406;SDS011;57821;52.202;0.154;2023-05-13T11:07:50;18.15;;;7.15;;
70406;SDS011;57821;52.202;0.154;2023-05-13T11:10:41;23.65;;;6.65;;
70406;SDS011;57821;52.202;0.154;2023-05-13T11:13:34;22.75;;;6.93;;
70406;SDS011;57821;52.202;0.154;2023-05-13T11:16:23;23.98;;;6.00;;
70406;SDS011;57821;52.202;0.154;2023-05-13T11:19:17;9.23;;;6.13;;
70406;SDS011;57821;52.202;0.154;2023-05-13T11:22:13;12.68;;;5.70;;
70406;SDS011;57821;52.202;0.154;2023-05-13T11:25:09;14.15;;;6.05;;
70406;SDS011;57821;52.202;0.154;2023-05-13T11:27:58;18.50;;;5.93;;
70406;SDS011;57821;52.202;0.154;2023-05-13T11:30:54;14.20;;;6.18;;
70406;SDS011;57821;52.202;0.154;2023-05-13T11:39:49;11.07;;;6.13;;
70406;SDS011;57821;52.202;0.154;2023-05-13T11:42:37;16.48;;;7.00;;
70406;SDS011;57821;52.202;0.154;2023-05-13T11:45:24;13.13;;;6.03;;
70406;SDS011;57821;52.202;0.154;2023-05-13T11:48:21;18.00;;;6.57;;
70406;SDS011;57821;52.202;0.154;2023-05-13T11:51:09;13.52;;;6.78;;
70406;SDS011;57821;52.202;0.154;2023-05-13T11:53:59;16.55;;;8.02;;
70406;SDS011;57821;52.202;0.154;2023-05-13T11:56:48;14.32;;;7.22;;
70406;SDS011;57821;52.202;0.154;2023-05-13T11:59:34;13.98;;;6.65;;
70406;SDS011;57821;52.202;0.154;2023-05-13T12:02:35;17.48;;;7.05;;
70406;SDS011;57821;52.202;0.154;2023-05-13T12:05:23;19.35;;;7.40;;
70406;SDS011;57821;52.202;0.154;2023-05-13T12:08:11;13.90;;;6.95;;
70406;SDS011;57821;52.202;0.154;2023-05-13T12:10:58;16.67;;;6.90;;
70406;SDS011;57821;52.202;0.154;2023-05-13T12:13:45;15.48;;;7.03;;
70406;SDS011;57821;52.202;0.154;2023-05-13T12:16:32;16.15;;;6.93;;
70406;SDS011;57821;52.202;0.154;2023-05-13T12:19:19;12.40;;;7.18;;
70406;SDS011;57821;52.202;0.154;2023-05-13T12:22:06;17.75;;;7.78;;
70406;SDS011;57821;52.202;0.154;2023-05-13T12:24:53;15.13;;;7.07;;
70406;SDS011;57821;52.202;0.154;2023-05-13T12:27:40;17.92;;;6.97;;
70406;SDS011;57821;52.202;0.154;2023-05-13T12:30:32;14.90;;;6.45;;
70406;SDS011;57821;52.202;0.154;2023-05-13T12:36:20;12.38;;;6.72;;
70406;SDS011;57821;52.202;0.154;2023-05-13T12:39:09;13.40;;;7.25;;
70406;SDS011;57821;52.202;0.154;2023-05-13T12:41:56;13.70;;;6.35;;
70406;SDS011;57821;52.202;0.154;2023-05-13T12:44:44;12.75;;;6.57;;
70406;SDS011;57821;52.202;0.154;2023-05-13T12:47:46;14.25;;;7.13;;
70406;SDS011;57821;52.202;0.154;2023-05-13T12:50:36;21.00;;;6.90;;
70406;SDS011;57821;52.202;0.154;2023-05-13T12:53:23;12.23;;;6.50;;
70406;SDS011;57821;52.202;0.154;2023-05-13T12:56:10;15.40;;;7.20;;
70406;SDS011;57821;52.202;0.154;2023-05-13T12:58:57;15.05;;;7.07;;
70406;SDS011;57821;52.202;0.154;2023-05-13T13:01:44;13.23;;;6.53;;
70406;SDS011;57821;52.202;0.154;2023-05-13T13:04:30;13.02;;;6.80;;
70406;SDS011;57821;52.202;0.154;2023-05-13T13:07:17;14.80;;;7.25;;
70406;SDS011;57821;52.202;0.154;2023-05-13T13:10:04;15.77;;;6.63;;
70406;SDS011;57821;52.202;0.154;2023-05-13T13:12:51;14.20;;;6.72;;
70406;SDS011;57821;52.202;0.154;2023-05-13T13:15:38;13.30;;;6.40;;
70406;SDS011;57821;52.202;0.154;2023-05-13T13:18:25;14.27;;;6.95;;
70406;SDS011;57821;52.202;0.154;2023-05-13T13:21:12;14.90;;;7.05;;
70406;SDS011;57821;52.202;0.154;2023-05-13T13:23:59;13.40;;;6.63;;
70406;SDS011;57821;52.202;0.154;2023-05-13T13:26:46;12.70;;;6.57;;
70406;SDS011;57821;52.202;0.154;2023-05-13T13:29:33;11.82;;;6.53;;
70406;SDS011;57821;52.202;0.154;2023-05-13T13:32:20;13.32;;;6.70;;
70406;SDS011;57821;52.202;0.154;2023-05-13T13:35:07;13.23;;;6.65;;
70406;SDS011;57821;52.202;0.154;2023-05-13T13:37:55;18.92;;;7.03;;
70406;SDS011;57821;52.202;0.154;2023-05-13T13:40:41;12.82;;;6.32;;
70406;SDS011;57821;52.202;0.154;2023-05-13T13:43:28;16.02;;;7.20;;
70406;SDS011;57821;52.202;0.154;2023-05-13T13:46:15;18.25;;;7.18;;
70406;SDS011;57821;52.202;0.154;2023-05-13T13:49:02;13.02;;;6.72;;
70406;SDS011;57821;52.202;0.154;2023-05-13T13:52:08;13.65;;;7.00;;
70406;SDS011;57821;52.202;0.154;2023-05-13T13:54:55;22.77;;;7.40;;
70406;SDS011;57821;52.202;0.154;2023-05-13T13:57:42;13.20;;;7.40;;
70406;SDS011;57821;52.202;0.154;2023-05-13T14:00:28;11.60;;;6.80;;
70406;SDS011;57821;52.202;0.154;2023-05-13T14:03:15;13.82;;;7.18;;
70406;SDS011;57821;52.202;0.154;2023-05-13T14:06:02;13.88;;;7.13;;
70406;SDS011;57821;52.202;0.154;2023-05-13T14:08:49;15.95;;;6.63;;
70406;SDS011;57821;52.202;0.154;2023-05-13T14:11:36;11.35;;;6.82;;
70406;SDS011;57821;52.202;0.154;2023-05-13T14:14:23;13.73;;;6.10;;
70406;SDS011;57821;52.202;0.154;2023-05-13T14:17:10;12.90;;;6.30;;
70406;SDS011;57821;52.202;0.154;2023-05-13T14:19:59;12.63;;;6.70;;
70406;SDS011;57821;52.202;0.154;2023-05-13T14:22:46;16.52;;;6.80;;
70406;SDS011;57821;52.202;0.154;2023-05-13T14:25:34;17.48;;;7.20;;
70406;SDS011;57821;52.202;0.154;2023-05-13T14:28:20;10.73;;;6.00;;
70406;SDS011;57821;52.202;0.154;2023-05-13T14:31:10;12.48;;;6.25;;
70406;SDS011;57821;52.202;0.154;2023-05-13T14:33:57;14.35;;;7.45;;
70406;SDS011;57821;52.202;0.154;2023-05-13T14:36:44;12.18;;;6.70;;
70406;SDS011;57821;52.202;0.154;2023-05-13T14:39:31;15.10;;;6.88;;
70406;SDS011;57821;52.202;0.154;2023-05-13T14:42:17;14.73;;;7.28;;
70406;SDS011;57821;52.202;0.154;2023-05-13T14:45:04;13.68;;;7.68;;
70406;SDS011;57821;52.202;0.154;2023-05-13T14:47:52;17.02;;;8.95;;
70406;SDS011;57821;52.202;0.154;2023-05-13T14:50:38;22.80;;;12.00;;
70406;SDS011;57821;52.202;0.154;2023-05-13T14:53:27;17.33;;;8.18;;
70406;SDS011;57821;52.202;0.154;2023-05-13T14:56:14;12.30;;;6.85;;
70406;SDS011;57821;52.202;0.154;2023-05-13T14:59:01;10.65;;;6.60;;
70406;SDS011;57821;52.202;0.154;2023-05-13T15:01:48;12.77;;;6.43;;
70406;SDS011;57821;52.202;0.154;2023-05-13T15:04:34;12.23;;;6.60;;
70406;SDS011;57821;52.202;0.154;2023-05-13T15:07:21;12.35;;;6.93;;
70406;SDS011;57821;52.202;0.154;2023-05-13T15:10:08;12.13;;;6.72;;
70406;SDS011;57821;52.202;0.154;2023-05-13T15:12:55;12.25;;;6.68;;
70406;SDS011;57821;52.202;0.154;2023-05-13T15:15:42;13.90;;;6.65;;
70406;SDS011;57821;52.202;0.154;2023-05-13T15:18:29;13.43;;;7.40;;
70406;SDS011;57821;52.202;0.154;2023-05-13T15:21:17;11.05;;;6.70;;
70406;SDS011;57821;52.202;0.154;2023-05-13T15:24:03;10.25;;;6.45;;
70406;SDS011;57821;52.202;0.154;2023-05-13T15:26:50;11.25;;;6.20;;
70406;SDS011;57821;52.202;0.154;2023-05-13T15:29:37;10.80;;;5.80;;
70406;SDS011;57821;52.202;0.154;2023-05-13T15:32:24;14.48;;;6.15;;
70406;SDS011;57821;52.202;0.154;2023-05-13T15:35:11;10.82;;;6.30;;
70406;SDS011;57821;52.202;0.154;2023-05-13T15:37:58;13.60;;;7.05;;
70406;SDS011;57821;52.202;0.154;2023-05-13T15:40:44;14.27;;;6.72;;
70406;SDS011;57821;52.202;0.154;2023-05-13T15:43:31;11.45;;;6.50;;
70406;SDS011;57821;52.202;0.154;2023-05-13T15:46:18;12.00;;;6.10;;
70406;SDS011;57821;52.202;0.154;2023-05-13T15:49:05;12.27;;;5.88;;
70406;SDS011;57821;52.202;0.154;2023-05-13T15:51:52;12.85;;;6.13;;
70406;SDS011;57821;52.202;0.154;2023-05-13T15:54:39;13.00;;;6.20;;
70406;SDS011;57821;52.202;0.154;2023-05-13T15:57:25;14.55;;;5.93;;
70406;SDS011;57821;52.202;0.154;2023-05-13T16:00:12;10.10;;;5.70;;
70406;SDS011;57821;52.202;0.154;2023-05-13T16:03:00;10.15;;;5.75;;
70406;SDS011;57821;52.202;0.154;2023-05-13T16:05:47;10.75;;;6.70;;
70406;SDS011;57821;52.202;0.154;2023-05-13T16:08:34;12.45;;;6.55;;
70406;SDS011;57821;52.202;0.154;2023-05-13T16:11:21;13.00;;;6.15;;
70406;SDS011;57821;52.202;0.154;2023-05-13T16:14:08;15.23;;;6.97;;